Time;durP1;ratioP1;P1;durP2;ratioP2;P2;SDS_P1;SDS_P2;PMS_P1;PMS_P2;Temp;Humidity;BMP_temperature;BMP_pressure;BME280_temperature;BME280_humidity;BME280_pressure;Samples;Min_cycle;Max_cycle;Signal;HPM_P1;HPM_P2
2023/08/23 00:02:24;;;;;;;7.57;4.40;;;21.20;99.90;;;;;;5017400;28;20104;-71
2023/08/23 00:04:50;;;;;;;8.35;5.03;;;21.20;99.90;;;;;;5017204;28;20094;-72
2023/08/23 00:07:16;;;;;;;11.40;4.85;;;21.20;99.90;;;;;;5017855;28;20033;-71
2023/08/23 00:09:41;;;;;;;9.00;4.65;;;21.10;99.90;;;;;;5016686;28;20049;-71
2023/08/23 00:12:07;;;;;;;6.35;4.28;;;21.00;99.90;;;;;;5017059;28;20049;-71
2023/08/23 00:14:33;;;;;;;10.07;4.57;;;20.90;99.90;;;;;;5017607;28;20030;-71
2023/08/23 00:16:58;;;;;;;11.75;5.28;;;20.80;99.90;;;;;;5017876;28;20110;-71
2023/08/23 00:19:24;;;;;;;10.15;4.80;;;20.80;99.90;;;;;;5017360;28;20032;-72
2023/08/23 00:21:49;;;;;;;8.15;4.35;;;20.70;99.90;;;;;;5016490;28;20025;-72
2023/08/23 00:24:15;;;;;;;9.50;5.35;;;20.70;99.90;;;;;;5016503;28;20072;-71
2023/08/23 00:26:40;;;;;;;8.60;4.57;;;20.70;99.90;;;;;;5016283;28;20033;-71
2023/08/23 00:29:06;;;;;;;12.30;4.72;;;20.70;99.90;;;;;;5017450;28;20017;-72
2023/08/23 00:31:32;;;;;;;12.02;5.68;;;20.80;99.90;;;;;;5016730;28;20026;-71
2023/08/23 00:33:57;;;;;;;7.85;5.22;;;20.80;99.90;;;;;;5017528;28;20022;-71
2023/08/23 00:36:23;;;;;;;8.63;5.07;;;20.80;99.90;;;;;;5016523;28;20030;-71
2023/08/23 00:38:48;;;;;;;9.52;4.70;;;20.80;99.90;;;;;;5016449;28;20030;-71
2023/08/23 00:41:15;;;;;;;9.43;4.88;;;20.80;99.90;;;;;;5016732;28;20026;-71
2023/08/23 00:43:40;;;;;;;6.15;4.93;;;20.70;99.90;;;;;;5016868;28;20077;-71
2023/08/23 00:46:06;;;;;;;8.30;4.47;;;20.70;99.90;;;;;;5016299;28;20064;-71
2023/08/23 00:48:32;;;;;;;6.22;4.82;;;20.70;99.90;;;;;;5016187;28;20112;-72
2023/08/23 00:50:58;;;;;;;8.43;5.05;;;20.70;99.90;;;;;;5017404;28;20056;-71
2023/08/23 00:53:24;;;;;;;8.43;5.20;;;20.60;99.90;;;;;;5017079;28;20018;-71
2023/08/23 00:55:49;;;;;;;9.43;5.55;;;20.60;99.90;;;;;;5017104;28;20024;-71
2023/08/23 00:58:15;;;;;;;9.68;5.00;;;20.50;99.90;;;;;;5020314;28;20053;-71
2023/08/23 01:00:41;;;;;;;8.57;5.43;;;20.40;99.90;;;;;;5020109;28;20026;-71
2023/08/23 01:03:07;;;;;;;5.68;4.85;;;20.50;99.90;;;;;;5020209;28;20112;-71
2023/08/23 01:06:11;;;;;;;6.60;5.28;;;20.50;99.90;;;;;;5021143;28;20080;-71
2023/08/23 01:08:58;;;;;;;6.75;5.55;;;20.50;99.90;;;;;;5019002;28;20034;-71
2023/08/23 01:11:31;;;;;;;8.73;5.05;;;20.50;99.90;;;;;;5019919;28;20017;-71
2023/08/23 01:14:08;;;;;;;7.05;5.05;;;20.50;99.90;;;;;;5020724;28;20084;-71
2023/08/23 01:16:35;;;;;;;8.30;5.00;;;20.50;99.90;;;;;;5020760;28;20108;-71
2023/08/23 01:19:09;;;;;;;7.88;5.40;;;20.50;99.90;;;;;;5020650;28;20026;-72
2023/08/23 01:21:37;;;;;;;10.95;5.80;;;20.50;99.90;;;;;;5020428;28;20045;-71
2023/08/23 01:24:08;;;;;;;7.95;4.88;;;20.50;99.90;;;;;;5020177;28;20132;-71
2023/08/23 01:26:36;;;;;;;9.65;4.97;;;20.50;99.90;;;;;;5020974;28;20022;-71
2023/08/23 01:29:01;;;;;;;9.75;5.20;;;20.50;99.90;;;;;;5020333;28;20065;-72
2023/08/23 01:31:30;;;;;;;6.80;5.70;;;20.50;99.90;;;;;;5020343;28;20014;-71
2023/08/23 01:34:07;;;;;;;10.10;5.75;;;20.50;99.90;;;;;;5019493;28;20025;-71
2023/08/23 01:36:33;;;;;;;11.18;4.95;;;20.50;99.90;;;;;;5020464;28;20018;-71
2023/08/23 01:39:00;;;;;;;10.68;5.40;;;20.40;99.90;;;;;;5019579;28;20030;-71
2023/08/23 01:41:26;;;;;;;11.02;5.38;;;20.40;99.90;;;;;;5019822;28;20026;-71
2023/08/23 01:43:52;;;;;;;10.35;5.50;;;20.40;99.90;;;;;;5019915;28;20033;-71
2023/08/23 01:46:18;;;;;;;11.10;5.93;;;20.40;99.90;;;;;;5019336;28;20029;-71
2023/08/23 01:48:43;;;;;;;8.10;4.72;;;20.40;99.90;;;;;;5020268;28;20021;-72
2023/08/23 01:51:09;;;;;;;8.70;4.68;;;20.30;99.90;;;;;;5020052;28;20022;-71
2023/08/23 01:53:35;;;;;;;6.90;5.05;;;20.30;99.90;;;;;;5019074;28;20030;-71
2023/08/23 01:56:00;;;;;;;10.48;5.15;;;20.30;99.90;;;;;;5019392;28;20061;-72
2023/08/23 01:58:26;;;;;;;6.57;5.22;;;20.30;99.90;;;;;;5019235;28;20118;-72
2023/08/23 02:00:52;;;;;;;7.82;5.38;;;20.20;99.90;;;;;;5019503;28;20025;-71
2023/08/23 02:03:18;;;;;;;13.27;5.28;;;20.20;99.90;;;;;;5019357;28;20076;-71
2023/08/23 02:05:44;;;;;;;7.22;4.97;;;20.20;99.90;;;;;;5019666;28;20022;-71
2023/08/23 02:08:10;;;;;;;7.50;5.15;;;20.30;99.90;;;;;;5019674;28;20029;-71
2023/08/23 02:10:35;;;;;;;10.35;5.70;;;20.30;99.90;;;;;;5018818;28;20071;-72
2023/08/23 02:13:04;;;;;;;8.25;5.40;;;20.20;99.90;;;;;;5019774;28;20057;-71
2023/08/23 02:15:30;;;;;;;9.82;5.68;;;20.20;99.90;;;;;;5018842;28;20022;-71
2023/08/23 02:17:55;;;;;;;10.25;5.63;;;20.10;99.90;;;;;;5019668;28;20026;-71
2023/08/23 02:20:21;;;;;;;7.70;5.63;;;19.90;99.90;;;;;;5019153;28;20113;-71
2023/08/23 02:22:46;;;;;;;9.52;5.32;;;19.80;99.90;;;;;;5020070;28;20032;-71
2023/08/23 02:25:12;;;;;;;8.82;5.35;;;19.70;99.90;;;;;;5018941;28;20061;-71
2023/08/23 02:27:37;;;;;;;7.20;4.78;;;19.70;99.90;;;;;;5018537;28;20032;-71
2023/08/23 02:30:03;;;;;;;11.07;5.45;;;19.70;99.90;;;;;;5018726;28;20057;-72
2023/08/23 02:32:29;;;;;;;7.22;5.28;;;19.70;99.90;;;;;;5018508;28;20018;-71
2023/08/23 02:34:54;;;;;;;9.38;5.22;;;19.60;99.90;;;;;;5018715;28;20025;-71
2023/08/23 02:37:20;;;;;;;9.15;5.40;;;19.70;99.90;;;;;;5018752;28;20030;-71
2023/08/23 02:39:45;;;;;;;9.88;5.70;;;19.70;99.90;;;;;;5018387;28;20106;-71
2023/08/23 02:42:11;;;;;;;10.20;6.18;;;19.70;99.90;;;;;;5018282;28;20025;-71
2023/08/23 02:44:37;;;;;;;6.63;5.30;;;19.70;99.90;;;;;;5042097;22;20038;-64
2023/08/23 02:47:02;;;;;;;11.18;5.38;;;19.80;99.90;;;;;;5018475;28;20030;-64
2023/08/23 02:49:28;;;;;;;9.55;5.95;;;19.80;99.90;;;;;;5018175;28;20033;-64
2023/08/23 02:51:53;;;;;;;15.73;6.30;;;19.80;99.90;;;;;;5018416;28;20025;-64
2023/08/23 02:54:19;;;;;;;10.55;6.28;;;19.70;99.90;;;;;;5018952;28;20033;-64
2023/08/23 02:56:44;;;;;;;6.68;6.07;;;19.60;99.90;;;;;;5018059;28;20041;-64
2023/08/23 02:59:10;;;;;;;9.77;6.00;;;19.60;99.90;;;;;;5019466;28;20037;-64
2023/08/23 03:01:35;;;;;;;10.63;5.60;;;19.50;99.90;;;;;;5018973;28;20041;-64
2023/08/23 03:04:01;;;;;;;11.27;5.80;;;19.50;99.90;;;;;;5018775;28;20026;-64
2023/08/23 03:06:26;;;;;;;11.43;5.63;;;19.50;99.90;;;;;;5018248;28;20030;-64
2023/08/23 03:08:52;;;;;;;11.52;6.40;;;19.50;99.90;;;;;;5017814;28;20091;-64
2023/08/23 03:11:17;;;;;;;16.85;6.03;;;19.50;99.90;;;;;;5017874;28;20030;-64
2023/08/23 03:13:43;;;;;;;12.35;5.90;;;19.50;99.90;;;;;;5018865;28;20041;-64
2023/08/23 03:16:08;;;;;;;9.48;6.47;;;19.50;99.90;;;;;;5017642;28;20030;-64
2023/08/23 03:18:35;;;;;;;8.70;5.72;;;19.40;99.90;;;;;;5018008;28;20049;-64
2023/08/23 03:21:00;;;;;;;14.15;6.20;;;19.40;99.90;;;;;;5017662;28;20090;-64
2023/08/23 03:23:26;;;;;;;7.50;5.65;;;19.40;99.90;;;;;;5017542;28;20109;-64
2023/08/23 03:25:51;;;;;;;10.90;6.40;;;19.50;99.90;;;;;;5017829;28;20025;-64
2023/08/23 03:28:17;;;;;;;8.57;5.80;;;19.50;99.90;;;;;;5018396;28;20040;-64
2023/08/23 03:30:42;;;;;;;9.75;6.45;;;19.50;99.90;;;;;;5017451;28;20022;-64
2023/08/23 03:33:08;;;;;;;8.40;5.72;;;19.40;99.90;;;;;;5017349;28;20076;-64
2023/08/23 03:35:34;;;;;;;12.02;5.80;;;19.40;99.90;;;;;;5017307;28;20137;-64
2023/08/23 03:38:00;;;;;;;8.45;6.03;;;19.40;99.90;;;;;;5017237;28;20026;-64
2023/08/23 03:40:25;;;;;;;21.15;6.20;;;19.40;99.90;;;;;;5017072;28;20057;-64
2023/08/23 03:42:51;;;;;;;12.20;5.80;;;19.40;99.90;;;;;;5018290;28;20029;-64
2023/08/23 03:45:20;;;;;;;8.90;6.20;;;19.50;99.90;;;;;;5017355;28;20026;-64
2023/08/23 03:47:46;;;;;;;9.32;6.18;;;19.50;99.90;;;;;;5017308;28;20100;-64
2023/08/23 03:50:12;;;;;;;9.95;6.20;;;19.40;99.90;;;;;;5017108;28;20014;-64
2023/08/23 03:52:37;;;;;;;10.65;6.40;;;19.40;99.90;;;;;;5018177;28;20033;-64
2023/08/23 03:55:03;;;;;;;12.38;6.85;;;19.40;99.90;;;;;;5016964;28;20033;-64
2023/08/23 03:57:29;;;;;;;10.98;6.68;;;19.30;99.90;;;;;;5017444;28;20037;-64
2023/08/23 03:59:55;;;;;;;9.82;6.40;;;19.30;99.90;;;;;;5016931;28;20034;-64
2023/08/23 04:02:20;;;;;;;10.27;7.03;;;19.20;99.90;;;;;;5017724;28;20040;-64
2023/08/23 04:04:46;;;;;;;10.93;6.55;;;19.20;99.90;;;;;;5017507;28;20018;-64
2023/08/23 04:07:15;;;;;;;10.20;6.25;;;19.20;99.90;;;;;;5016827;28;20099;-64
2023/08/23 04:09:41;;;;;;;10.43;6.20;;;19.20;99.90;;;;;;5016739;28;20036;-64
2023/08/23 04:12:07;;;;;;;10.77;6.00;;;19.20;99.90;;;;;;5016813;28;20026;-64
2023/08/23 04:14:33;;;;;;;9.15;5.93;;;19.20;99.90;;;;;;5016519;28;20030;-64
2023/08/23 04:16:59;;;;;;;6.82;6.13;;;19.20;99.90;;;;;;5017098;28;20053;-64
2023/08/23 04:19:25;;;;;;;9.50;6.43;;;19.20;99.90;;;;;;5016995;28;20026;-64
2023/08/23 04:21:51;;;;;;;12.05;6.68;;;19.20;99.90;;;;;;5017349;28;20105;-64
2023/08/23 04:24:17;;;;;;;10.63;6.20;;;19.10;99.90;;;;;;5017408;28;20057;-64
2023/08/23 04:26:42;;;;;;;10.68;6.35;;;19.00;99.90;;;;;;5017380;28;20026;-64
2023/08/23 04:29:08;;;;;;;8.68;6.65;;;19.10;99.90;;;;;;5016315;28;20053;-64
2023/08/23 04:31:33;;;;;;;13.02;6.70;;;19.10;99.90;;;;;;5016704;28;20022;-64
2023/08/23 04:34:01;;;;;;;8.93;6.20;;;19.20;99.90;;;;;;5016443;28;20029;-64
2023/08/23 04:36:27;;;;;;;10.55;6.90;;;19.30;99.90;;;;;;5017237;28;20024;-64
2023/08/23 04:38:53;;;;;;;8.38;6.05;;;19.20;99.90;;;;;;5017295;28;20026;-64
2023/08/23 04:41:18;;;;;;;15.88;6.70;;;19.10;99.90;;;;;;5016978;28;20026;-64
2023/08/23 04:43:44;;;;;;;10.85;6.93;;;19.00;99.90;;;;;;5016157;28;20060;-65
2023/08/23 04:46:09;;;;;;;10.27;6.20;;;19.00;99.90;;;;;;5016598;28;20116;-64
2023/08/23 04:48:35;;;;;;;9.20;6.68;;;19.00;99.90;;;;;;5016423;28;20060;-64
2023/08/23 04:51:02;;;;;;;12.48;7.22;;;19.00;99.90;;;;;;5016599;28;20029;-64
2023/08/23 04:53:27;;;;;;;12.05;6.85;;;19.00;99.90;;;;;;5016355;28;20085;-64
2023/08/23 04:55:58;;;;;;;11.60;6.95;;;19.10;99.90;;;;;;5016528;28;20068;-64
2023/08/23 04:58:27;;;;;;;15.88;7.07;;;19.10;99.90;;;;;;5017251;28;20030;-64
2023/08/23 05:00:54;;;;;;;13.73;6.95;;;19.00;99.90;;;;;;5017065;28;20057;-64
2023/08/23 05:03:20;;;;;;;13.75;7.45;;;19.10;99.90;;;;;;5016184;28;20045;-64
2023/08/23 05:05:46;;;;;;;15.05;7.47;;;19.00;99.90;;;;;;5017038;28;20030;-64
2023/08/23 05:08:12;;;;;;;10.95;7.25;;;19.00;99.90;;;;;;5017050;28;20079;-64
2023/08/23 05:10:37;;;;;;;9.75;6.90;;;19.00;99.90;;;;;;5017074;28;20018;-64
2023/08/23 05:13:04;;;;;;;13.68;7.88;;;19.10;99.90;;;;;;5016841;28;20022;-64
2023/08/23 05:15:30;;;;;;;14.73;7.50;;;19.00;99.90;;;;;;5017137;28;20018;-64
2023/08/23 05:17:55;;;;;;;14.88;7.25;;;18.90;99.90;;;;;;5016057;28;20113;-64
2023/08/23 05:20:21;;;;;;;10.75;7.10;;;18.90;99.90;;;;;;5016945;28;20104;-64
2023/08/23 05:22:47;;;;;;;10.63;7.43;;;18.90;99.90;;;;;;5016168;28;20089;-64
2023/08/23 05:25:12;;;;;;;16.80;7.90;;;18.90;99.90;;;;;;5015953;28;20036;-64
2023/08/23 05:27:38;;;;;;;11.90;7.72;;;18.90;99.90;;;;;;5015951;28;20026;-64
2023/08/23 05:30:04;;;;;;;15.10;8.45;;;18.80;99.90;;;;;;5016277;28;20063;-64
2023/08/23 05:32:29;;;;;;;16.45;8.38;;;18.90;99.90;;;;;;5016623;28;20038;-64
2023/08/23 05:34:55;;;;;;;11.88;9.05;;;18.90;99.90;;;;;;5015871;28;20029;-64
2023/08/23 05:37:21;;;;;;;16.27;9.07;;;18.90;99.90;;;;;;5015902;28;20083;-64
2023/08/23 05:39:47;;;;;;;13.68;8.82;;;19.00;99.90;;;;;;5017121;28;20029;-64
2023/08/23 05:42:13;;;;;;;9.98;8.43;;;19.00;99.90;;;;;;5017343;28;20025;-64
2023/08/23 05:44:38;;;;;;;12.40;7.57;;;19.10;99.90;;;;;;5019275;28;20076;-64
2023/08/23 05:47:04;;;;;;;13.40;7.57;;;19.10;99.90;;;;;;5019934;28;20114;-64
2023/08/23 05:49:29;;;;;;;11.63;7.50;;;19.00;99.90;;;;;;5019189;28;20022;-64
2023/08/23 05:51:55;;;;;;;15.32;7.40;;;19.00;99.90;;;;;;5019313;28;20085;-64
2023/08/23 05:54:20;;;;;;;10.43;7.57;;;19.10;99.90;;;;;;5019140;28;20064;-64
2023/08/23 05:56:46;;;;;;;10.88;7.95;;;19.30;99.90;;;;;;5019252;28;20072;-64
2023/08/23 05:59:11;;;;;;;14.98;7.93;;;19.20;99.90;;;;;;5019349;28;20030;-64
2023/08/23 06:01:38;;;;;;;12.82;8.18;;;19.20;99.90;;;;;;5019903;28;20097;-64
2023/08/23 06:04:03;;;;;;;16.38;8.65;;;19.20;99.90;;;;;;5019705;28;20087;-64
2023/08/23 06:06:29;;;;;;;14.68;8.15;;;19.30;99.90;;;;;;5019296;28;20022;-64
2023/08/23 06:08:54;;;;;;;14.00;9.60;;;19.30;99.90;;;;;;5019043;28;20026;-64
2023/08/23 06:11:20;;;;;;;12.85;9.18;;;19.20;99.90;;;;;;5019653;28;20037;-64
2023/08/23 06:13:49;;;;;;;13.63;9.40;;;19.20;99.90;;;;;;5018771;28;20044;-64
2023/08/23 06:16:15;;;;;;;18.80;8.80;;;19.20;99.90;;;;;;5019127;28;20026;-64
2023/08/23 06:18:40;;;;;;;13.15;8.35;;;19.20;99.90;;;;;;5019687;28;20032;-64
2023/08/23 06:21:06;;;;;;;12.50;8.38;;;19.30;99.90;;;;;;5018714;28;20025;-64
2023/08/23 06:23:32;;;;;;;16.15;9.23;;;19.40;99.90;;;;;;5018966;28;20028;-64
2023/08/23 06:26:02;;;;;;;13.25;9.18;;;19.50;99.90;;;;;;5018571;28;20048;-64
2023/08/23 06:28:28;;;;;;;11.85;9.15;;;19.60;99.90;;;;;;5019592;28;20026;-64
2023/08/23 06:30:55;;;;;;;12.45;9.02;;;19.60;99.90;;;;;;5018529;28;20026;-64
2023/08/23 06:33:21;;;;;;;23.42;8.18;;;19.70;99.90;;;;;;5018883;28;20025;-64
2023/08/23 06:35:46;;;;;;;9.73;8.40;;;19.70;99.90;;;;;;5019175;28;20026;-65
2023/08/23 06:38:15;;;;;;;11.07;8.38;;;19.80;99.90;;;;;;5018449;28;20033;-65
2023/08/23 06:40:42;;;;;;;10.73;8.65;;;19.90;99.90;;;;;;5018389;28;20029;-65
2023/08/23 06:43:08;;;;;;;13.40;9.07;;;19.90;99.90;;;;;;5019482;28;20033;-65
2023/08/23 06:45:34;;;;;;;12.85;8.52;;;19.90;99.90;;;;;;5018934;28;20167;-65
2023/08/23 06:47:59;;;;;;;13.48;9.18;;;19.90;99.90;;;;;;5019329;28;20072;-65
2023/08/23 06:50:25;;;;;;;11.75;8.85;;;19.90;99.90;;;;;;5018151;28;20022;-65
2023/08/23 06:52:50;;;;;;;15.68;8.68;;;20.00;99.90;;;;;;5017735;28;20033;-65
2023/08/23 06:55:16;;;;;;;17.85;8.98;;;20.00;99.90;;;;;;5017825;28;20018;-65
2023/08/23 06:57:41;;;;;;;18.45;9.88;;;19.90;99.90;;;;;;5018839;28;20036;-65
2023/08/23 07:00:08;;;;;;;10.93;8.30;;;20.00;99.90;;;;;;5017945;28;20053;-64
2023/08/23 07:02:34;;;;;;;17.15;11.02;;;20.20;99.90;;;;;;5018218;28;20036;-65
2023/08/23 07:04:59;;;;;;;14.32;9.43;;;20.20;99.90;;;;;;5018200;28;20030;-64
2023/08/23 07:07:25;;;;;;;17.95;8.65;;;20.30;99.90;;;;;;5017840;28;20022;-65
2023/08/23 07:09:50;;;;;;;13.82;9.02;;;20.40;99.90;;;;;;5017895;28;20026;-64
2023/08/23 07:12:16;;;;;;;13.73;8.82;;;20.40;99.90;;;;;;5018414;28;20025;-65
2023/08/23 07:14:42;;;;;;;15.32;8.63;;;;;;;;;;5018609;28;20029;-64
2023/08/23 07:17:08;;;;;;;20.15;9.00;;;20.60;99.90;;;;;;5018817;28;20025;-64
2023/08/23 07:19:34;;;;;;;13.35;8.40;;;20.60;99.90;;;;;;5018519;28;20106;-65
2023/08/23 07:22:01;;;;;;;16.13;9.32;;;20.70;99.90;;;;;;5018617;28;20112;-65
2023/08/23 07:24:27;;;;;;;15.45;9.32;;;20.70;99.90;;;;;;5018107;28;20021;-64
2023/08/23 07:26:55;;;;;;;11.50;8.13;;;20.80;99.90;;;;;;5017830;28;20076;-66
2023/08/23 07:29:20;;;;;;;16.23;8.60;;;20.90;99.90;;;;;;5018526;28;20064;-66
2023/08/23 07:31:46;;;;;;;12.38;8.20;;;21.00;99.90;;;;;;5017919;28;20018;-67
2023/08/23 07:34:12;;;;;;;15.13;7.95;;;21.00;99.90;;;;;;5018510;28;20014;-66
2023/08/23 07:36:38;;;;;;;19.25;9.05;;;21.10;99.90;;;;;;5017360;28;20080;-66
2023/08/23 07:39:03;;;;;;;14.38;7.85;;;21.10;99.90;;;;;;5017688;28;20033;-67
2023/08/23 07:41:29;;;;;;;12.60;8.35;;;21.20;99.90;;;;;;5018118;28;20038;-66
2023/08/23 07:43:54;;;;;;;12.20;8.95;;;21.20;99.90;;;;;;5017069;28;20102;-65
2023/08/23 07:46:20;;;;;;;12.88;7.72;;;21.40;99.90;;;;;;5017104;28;20057;-66
2023/08/23 07:48:46;;;;;;;14.32;8.52;;;21.40;99.90;;;;;;5017096;28;20026;-66
2023/08/23 07:51:11;;;;;;;14.85;8.43;;;21.50;99.90;;;;;;5017830;28;20018;-66
2023/08/23 07:53:37;;;;;;;16.40;9.43;;;21.70;99.90;;;;;;5017048;28;20113;-66
2023/08/23 07:56:03;;;;;;;16.15;7.88;;;21.70;99.90;;;;;;5016857;28;20036;-66
2023/08/23 07:58:28;;;;;;;12.05;7.38;;;21.80;99.90;;;;;;5017805;28;20029;-68
2023/08/23 08:00:54;;;;;;;11.85;8.65;;;22.00;99.90;;;;;;5017857;28;20072;-67
2023/08/23 08:03:20;;;;;;;12.18;8.68;;;22.10;99.90;;;;;;5017998;28;20074;-68
2023/08/23 08:05:46;;;;;;;10.45;7.40;;;22.10;99.90;;;;;;5016439;28;20117;-68
2023/08/23 08:08:11;;;;;;;13.38;8.43;;;22.20;99.90;;;;;;5017844;28;20062;-68
2023/08/23 08:10:37;;;;;;;9.80;7.20;;;22.30;99.90;;;;;;5016888;28;20029;-68
2023/08/23 08:13:03;;;;;;;13.43;6.80;;;22.30;99.90;;;;;;5017533;28;20026;-68
2023/08/23 08:15:29;;;;;;;12.75;7.45;;;22.30;99.90;;;;;;5016559;28;20026;-68
2023/08/23 08:17:54;;;;;;;7.45;6.68;;;22.30;99.90;;;;;;5016696;28;20035;-67
2023/08/23 08:20:21;;;;;;;13.50;6.25;;;22.30;99.90;;;;;;5017442;28;20022;-68
2023/08/23 08:22:47;;;;;;;15.38;6.47;;;22.40;99.90;;;;;;5016948;28;20064;-67
2023/08/23 08:25:13;;;;;;;11.38;5.70;;;22.50;99.90;;;;;;5016761;28;20064;-68
2023/08/23 08:27:38;;;;;;;10.13;5.88;;;22.60;99.90;;;;;;5017242;28;20025;-68
2023/08/23 08:30:05;;;;;;;9.15;5.78;;;22.80;99.90;;;;;;5016609;28;20026;-68
2023/08/23 08:32:30;;;;;;;8.95;6.25;;;22.90;99.90;;;;;;5016039;28;20021;-68
2023/08/23 08:34:56;;;;;;;8.05;6.32;;;22.70;99.90;;;;;;5017242;28;20026;-68
2023/08/23 08:37:24;;;;;;;10.07;5.13;;;22.80;99.90;;;;;;5016420;28;20113;-68
2023/08/23 08:39:49;;;;;;;10.65;5.03;;;22.90;99.90;;;;;;5016493;28;20066;-68
2023/08/23 08:42:16;;;;;;;9.82;5.80;;;23.00;99.90;;;;;;5017259;28;20061;-69
2023/08/23 08:44:44;;;;;;;15.18;6.72;;;23.10;99.90;;;;;;5017508;28;20034;-68
2023/08/23 08:47:10;;;;;;;9.70;5.47;;;23.30;99.90;;;;;;5017222;28;20061;-67
2023/08/23 08:49:36;;;;;;;10.48;4.82;;;23.50;99.90;;;;;;5017067;28;20124;-67
2023/08/23 08:52:04;;;;;;;8.80;5.95;;;23.50;99.90;;;;;;5016373;28;20094;-67
2023/08/23 08:54:32;;;;;;;9.05;4.88;;;23.60;99.90;;;;;;5016309;28;20026;-67
2023/08/23 08:56:59;;;;;;;13.20;5.88;;;23.70;99.90;;;;;;5016390;28;20113;-67
2023/08/23 08:59:25;;;;;;;6.28;4.47;;;23.90;99.90;;;;;;5016114;28;20022;-67
2023/08/23 09:01:50;;;;;;;8.30;4.05;;;23.90;99.90;;;;;;5017061;28;20029;-67
2023/08/23 09:04:16;;;;;;;10.93;4.90;;;24.00;99.90;;;;;;5017057;28;20026;-67
2023/08/23 09:06:45;;;;;;;11.00;4.93;;;24.10;99.90;;;;;;5016103;28;20161;-67
2023/08/23 09:09:11;;;;;;;6.75;4.05;;;24.20;99.90;;;;;;5017022;28;20022;-67
2023/08/23 09:11:37;;;;;;;10.45;4.60;;;24.30;99.90;;;;;;5016101;28;20029;-67
2023/08/23 09:14:17;;;;;;;6.40;3.30;;;24.30;99.90;;;;;;5016766;28;20029;-67
2023/08/23 09:16:44;;;;;;;8.00;3.50;;;24.30;99.90;;;;;;5017679;28;20028;-67
2023/08/23 09:19:11;;;;;;;8.35;3.50;;;24.40;99.90;;;;;;5020086;28;20026;-67
2023/08/23 09:21:41;;;;;;;5.38;3.40;;;24.40;99.90;;;;;;5019871;28;20026;-67
2023/08/23 09:24:07;;;;;;;11.57;4.28;;;24.50;99.90;;;;;;5020665;28;20061;-67
2023/08/23 09:26:32;;;;;;;8.60;3.67;;;24.60;99.90;;;;;;5019913;28;20033;-67
2023/08/23 09:28:57;;;;;;;6.35;2.95;;;24.80;99.90;;;;;;5020619;28;20033;-67
2023/08/23 09:31:23;;;;;;;5.97;2.63;;;24.90;99.90;;;;;;5019641;28;20033;-68
2023/08/23 09:33:49;;;;;;;3.40;2.58;;;25.00;99.90;;;;;;5020302;28;20093;-68
2023/08/23 09:36:40;;;;;;;3.78;2.40;;;25.00;99.90;;;;;;5019998;28;20034;-68
2023/08/23 09:39:10;;;;;;;4.53;2.65;;;24.90;99.90;;;;;;5020534;28;20026;-68
2023/08/23 09:41:40;;;;;;;4.80;2.28;;;25.00;99.90;;;;;;5019518;28;20030;-68
2023/08/23 09:44:06;;;;;;;3.20;1.90;;;25.10;99.90;;;;;;5020172;28;20048;-68
2023/08/23 09:46:41;;;;;;;3.17;2.20;;;25.10;99.90;;;;;;5020563;28;20026;-67
2023/08/23 09:49:07;;;;;;;6.00;2.33;;;25.40;99.90;;;;;;5020202;28;20103;-67
2023/08/23 09:51:36;;;;;;;4.30;2.10;;;25.40;99.90;;;;;;5019503;28;20029;-67
2023/08/23 09:54:12;;;;;;;2.47;1.70;;;25.50;99.90;;;;;;5019399;28;20037;-67
2023/08/23 09:56:42;;;;;;;2.38;1.65;;;25.50;99.90;;;;;;5019244;28;20072;-67
2023/08/23 09:59:09;;;;;;;4.10;2.13;;;25.50;99.90;;;;;;5019493;28;20028;-67
2023/08/23 10:01:34;;;;;;;1.98;1.70;;;25.70;99.90;;;;;;5019970;28;20030;-67
2023/08/23 10:04:01;;;;;;;4.45;1.90;;;25.90;99.90;;;;;;5019043;28;20048;-67
2023/08/23 10:06:28;;;;;;;3.30;1.65;;;26.00;99.90;;;;;;5019934;28;20026;-67
2023/08/23 10:08:56;;;;;;;4.90;1.40;;;25.90;99.90;;;;;;5019224;28;20033;-67
2023/08/23 10:11:22;;;;;;;3.92;1.58;;;26.00;99.90;;;;;;5019886;28;20072;-67
2023/08/23 10:13:48;;;;;;;2.70;1.67;;;26.00;99.90;;;;;;5018873;28;20121;-67
2023/08/23 10:16:15;;;;;;;2.05;1.40;;;26.00;99.90;;;;;;5019202;28;20026;-67
2023/08/23 10:18:41;;;;;;;4.55;1.40;;;26.10;99.90;;;;;;5019726;28;20105;-67
2023/08/23 10:21:07;;;;;;;1.75;1.48;;;26.30;99.90;;;;;;5018812;28;20032;-67
2023/08/23 10:23:34;;;;;;;2.47;1.58;;;26.40;99.90;;;;;;5019037;28;20121;-67
2023/08/23 10:26:01;;;;;;;3.28;1.33;;;26.60;99.90;;;;;;5018870;28;20030;-67
2023/08/23 10:28:27;;;;;;;2.95;1.33;;;26.80;99.90;;;;;;5019378;28;20080;-67
2023/08/23 10:30:53;;;;;;;3.42;1.70;;;27.00;99.90;;;;;;5018573;28;20025;-67
2023/08/23 10:33:19;;;;;;;2.63;1.38;;;27.30;99.90;;;;;;5019473;28;20029;-67
2023/08/23 10:35:47;;;;;;;4.28;1.88;;;27.70;99.90;;;;;;5018461;28;20033;-67
2023/08/23 10:38:14;;;;;;;3.83;2.10;;;27.90;99.90;;;;;;5018483;28;20022;-67
2023/08/23 10:40:45;;;;;;;4.93;2.30;;;28.30;99.90;;;;;;5018261;28;20075;-67
2023/08/23 10:43:16;;;;;;;2.47;1.63;;;28.30;99.90;;;;;;5018358;28;20120;-67
2023/08/23 10:46:02;;;;;;;4.75;2.20;;;28.10;99.90;;;;;;5018716;28;20121;-67
2023/08/23 10:48:28;;;;;;;2.95;1.50;;;28.20;99.90;;;;;;5019003;28;20114;-67
2023/08/23 10:50:54;;;;;;;6.20;1.70;;;28.50;99.90;;;;;;5018946;28;20062;-67
2023/08/23 10:53:20;;;;;;;6.13;1.58;;;28.60;99.90;;;;;;5018080;28;20116;-67
2023/08/23 10:55:47;;;;;;;4.00;1.40;;;28.70;99.90;;;;;;5018109;28;20022;-67
2023/08/23 10:58:13;;;;;;;2.25;1.58;;;28.80;99.90;;;;;;5018277;28;20053;-67
2023/08/23 11:00:45;;;;;;;1.77;1.50;;;29.40;99.90;;;;;;5018364;28;20026;-67
2023/08/23 11:03:12;;;;;;;4.15;1.70;;;29.90;99.90;;;;;;5018037;28;20026;-67
2023/08/23 11:05:38;;;;;;;5.55;1.88;;;30.10;99.90;;;;;;5018815;28;20033;-67
2023/08/23 11:08:05;;;;;;;2.45;1.80;;;29.90;99.90;;;;;;5018026;28;20034;-67
2023/08/23 11:10:30;;;;;;;3.45;1.35;;;30.00;99.90;;;;;;5017813;28;20022;-67
2023/08/23 11:12:56;;;;;;;3.80;2.10;;;30.50;99.90;;;;;;5018160;28;20022;-67
2023/08/23 11:15:22;;;;;;;4.55;1.98;;;31.60;99.90;;;;;;5017705;28;20018;-67
2023/08/23 11:17:48;;;;;;;6.50;2.10;;;32.20;99.90;;;;;;5017663;28;20028;-67
2023/08/23 11:20:15;;;;;;;5.35;2.05;;;32.10;99.90;;;;;;5017847;28;20026;-67
2023/08/23 11:22:41;;;;;;;3.08;1.70;;;32.50;99.40;;;;;;5017953;28;20022;-67
2023/08/23 11:25:07;;;;;;;3.42;1.70;;;31.80;99.90;;;;;;5017491;28;20022;-67
2023/08/23 11:27:33;;;;;;;4.30;1.83;;;31.20;99.90;;;;;;5018576;28;20026;-67
2023/08/23 11:29:59;;;;;;;2.85;1.58;;;30.90;99.90;;;;;;5017469;28;20021;-67
2023/08/23 11:32:26;;;;;;;6.03;1.90;;;31.20;99.90;;;;;;5017720;28;20029;-67
2023/08/23 11:34:55;;;;;;;5.90;2.03;;;30.80;99.90;;;;;;5018366;28;20049;-67
2023/08/23 11:37:25;;;;;;;3.35;2.10;;;30.70;99.90;;;;;;5018194;28;20025;-68
2023/08/23 11:39:58;;;;;;;1.80;1.55;;;30.70;99.90;;;;;;5017416;28;20107;-68
2023/08/23 11:42:24;;;;;;;3.33;1.52;;;30.50;99.90;;;;;;5017553;28;20080;-68
2023/08/23 11:44:56;;;;;;;2.80;1.70;;;30.40;99.90;;;;;;5017648;28;20058;-69
2023/08/23 11:47:25;;;;;;;7.63;2.00;;;30.60;99.90;;;;;;5017071;28;20021;-69
2023/08/23 11:49:55;;;;;;;5.47;1.67;;;30.70;99.90;;;;;;5017140;28;20029;-69
2023/08/23 11:52:20;;;;;;;4.95;1.88;;;31.00;99.90;;;;;;5017932;28;20089;-68
2023/08/23 11:54:46;;;;;;;6.15;1.80;;;30.70;99.80;;;;;;5016965;28;20034;-68
2023/08/23 11:57:16;;;;;;;3.90;1.90;;;30.60;99.90;;;;;;5017869;28;20105;-68
2023/08/23 11:59:43;;;;;;;;;;;30.90;99.90;;;;;;5017378;28;20022;-68
2023/08/23 12:02:08;;;;;;;8.30;2.30;;;31.10;99.80;;;;;;5017067;28;19905;-68
2023/08/23 12:04:34;;;;;;;4.55;1.75;;;31.40;99.50;;;;;;5017159;28;20053;-68
2023/08/23 12:06:59;;;;;;;4.72;2.10;;;32.00;97.80;;;;;;5016996;28;20026;-68
2023/08/23 12:09:25;;;;;;;4.70;1.65;;;32.20;96.70;;;;;;5017654;28;20033;-69
2023/08/23 12:11:52;;;;;;;2.33;1.80;;;32.80;95.80;;;;;;5017685;28;20018;-69
2023/08/23 12:14:18;;;;;;;2.60;1.38;;;34.00;93.00;;;;;;5016945;28;20018;-69
2023/08/23 12:16:44;;;;;;;3.17;1.70;;;34.10;93.00;;;;;;5016597;28;20033;-69
2023/08/23 12:19:09;;;;;;;5.18;1.75;;;34.50;91.90;;;;;;5016696;28;20029;-69
2023/08/23 12:21:35;;;;;;;6.63;1.70;;;35.70;89.60;;;;;;5016873;28;20022;-69
2023/08/23 12:24:01;;;;;;;3.78;1.60;;;34.90;86.90;;;;;;5016614;28;20037;-69
2023/08/23 12:26:26;;;;;;;4.72;1.58;;;35.10;85.50;;;;;;5017339;28;20029;-69
2023/08/23 12:28:52;;;;;;;2.85;1.38;;;35.50;84.00;;;;;;5016345;28;20022;-69
2023/08/23 12:31:19;;;;;;;4.03;1.60;;;36.90;81.10;;;;;;5016442;28;20025;-68
2023/08/23 12:33:44;;;;;;;5.72;1.70;;;37.10;77.80;;;;;;5017243;28;20101;-68
2023/08/23 12:36:10;;;;;;;3.28;1.42;;;37.10;77.20;;;;;;5017432;28;20021;-69
2023/08/23 12:38:36;;;;;;;3.20;1.70;;;37.70;73.80;;;;;;5016626;28;20044;-69
2023/08/23 12:41:02;;;;;;;3.47;1.92;;;37.80;72.70;;;;;;5016696;28;20026;-69